Time;durP1;ratioP1;P1;durP2;ratioP2;P2;SDS_P1;SDS_P2;PMS_P1;PMS_P2;Temp;Humidity;BMP_temperature;BMP_pressure;BME280_temperature;BME280_humidity;BME280_pressure;Samples;Min_cycle;Max_cycle;Signal;HPM_P1;HPM_P2
2022/07/30 00:01:27;;;;;;;7.80;3.63;;;;;;;26.46;67.75;100205.06;4830669;29;20274;-57
2022/07/30 00:03:59;;;;;;;7.17;4.17;;;;;;;26.55;68.06;100209.66;4830702;29;20122;-57
2022/07/30 00:06:30;;;;;;;63.47;5.73;;;;;;;26.64;67.16;100219.59;4830547;29;20235;-54
2022/07/30 00:09:01;;;;;;;9.47;3.57;;;;;;;26.71;67.52;100208.34;4830337;29;20062;-54
2022/07/30 00:11:31;;;;;;;6.43;3.20;;;;;;;26.72;67.80;100193.97;4830218;29;20241;-57
2022/07/30 00:14:02;;;;;;;11.40;3.87;;;;;;;26.89;67.93;100191.56;4830336;29;20062;-55
2022/07/30 00:16:33;;;;;;;7.80;3.70;;;;;;;26.96;66.88;100191.88;4830338;29;20066;-57
2022/07/30 00:19:05;;;;;;;11.87;4.87;;;;;;;27.05;66.71;100195.59;4830483;29;20315;-56
2022/07/30 00:21:36;;;;;;;7.90;3.70;;;;;;;27.26;66.85;100193.78;4830391;29;20114;-55
2022/07/30 00:24:08;;;;;;;6.43;3.43;;;;;;;27.35;65.85;100181.38;4830390;29;20070;-58
2022/07/30 00:26:39;;;;;;;11.40;4.03;;;;;;;27.47;65.65;100185.66;4830406;29;20058;-56
2022/07/30 00:29:10;;;;;;;6.07;3.97;;;;;;;27.67;65.91;100185.72;4830206;29;20083;-58
2022/07/30 00:31:40;;;;;;;29.67;5.10;;;;;;;27.67;64.30;100180.34;4830478;29;20055;-58
2022/07/30 00:34:13;;;;;;;19.17;4.40;;;;;;;27.60;64.44;100179.19;4830383;29;20497;-58
2022/07/30 00:36:43;;;;;;;36.93;5.10;;;;;;;27.68;65.31;100192.78;4830430;29;20069;-54
2022/07/30 00:39:14;;;;;;;8.00;3.80;;;;;;;27.53;64.35;100185.13;4830329;29;20054;-55
2022/07/30 00:42:01;;;;;;;10.27;4.27;;;;;;;27.39;65.19;100180.13;4829815;29;20099;-57
2022/07/30 00:44:32;;;;;;;15.87;4.13;;;;;;;27.19;65.33;100159.56;4830124;29;20069;-57
2022/07/30 00:47:03;;;;;;;44.70;5.33;;;;;;;27.26;65.53;100171.47;4829754;29;20046;-57
2022/07/30 00:49:35;;;;;;;8.47;4.13;;;;;;;27.23;66.20;100161.84;4829909;29;20062;-57
2022/07/30 00:52:12;;;;;;;47.77;5.60;;;;;;;27.68;65.74;100160.56;4830190;29;20129;-56
2022/07/30 00:54:43;;;;;;;10.87;4.30;;;;;;;28.15;64.06;100163.47;4829988;29;20080;-56
2022/07/30 00:57:13;;;;;;;10.90;4.10;;;;;;;28.28;63.52;100153.31;4829859;29;20273;-57
2022/07/30 00:59:44;;;;;;;18.33;4.13;;;;;;;28.57;63.87;100158.69;4829860;29;20103;-57
2022/07/30 01:02:15;;;;;;;16.10;4.17;;;;;;;28.85;62.81;100150.69;4829733;29;20058;-55
2022/07/30 01:04:47;;;;;;;8.77;4.10;;;;;;;28.96;61.08;100141.63;4829798;29;20089;-55
2022/07/30 01:07:21;;;;;;;11.23;3.90;;;;;;;28.87;61.76;100132.56;4830178;29;20114;-56
2022/07/30 01:09:56;;;;;;;12.20;3.57;;;;;;;28.59;61.79;100134.34;4829699;29;20097;-57
2022/07/30 01:12:27;;;;;;;9.87;3.73;;;;;;;28.07;61.83;100098.88;4832708;29;20343;-56
2022/07/30 01:15:00;;;;;;;8.73;4.43;;;;;;;28.04;62.31;100126.03;4832980;29;20496;-56
2022/07/30 01:17:30;;;;;;;8.10;3.70;;;;;;;27.89;63.29;100131.81;4833231;29;20054;-58
2022/07/30 01:20:07;;;;;;;11.07;3.37;;;;;;;27.63;63.28;100125.22;4833092;29;20250;-57
2022/07/30 01:22:48;;;;;;;9.57;3.57;;;;;;;27.41;63.82;100123.63;4833219;29;20330;-57
2022/07/30 01:25:29;;;;;;;7.90;3.80;;;;;;;27.29;65.04;100112.16;4832899;29;20197;-56
2022/07/30 01:28:05;;;;;;;8.63;3.67;;;;;;;27.13;65.11;100090.31;4833110;29;20228;-57
2022/07/30 01:30:40;;;;;;;11.03;3.60;;;;;;;27.09;65.72;100095.97;4832770;29;20420;-58
2022/07/30 01:33:15;;;;;;;8.60;3.67;;;;;;;27.05;65.89;100094.53;4833014;29;20334;-57
2022/07/30 01:35:47;;;;;;;62.53;6.23;;;;;;;27.17;66.37;100087.25;4833152;29;20064;-57
2022/07/30 01:38:22;;;;;;;38.30;5.43;;;;;;;27.30;66.17;100081.66;4832760;29;20074;-57
2022/07/30 02:00:10;;;;;;;9.97;3.20;;;;;;;27.66;65.00;100060.56;4832692;29;20054;-56
2022/07/30 02:02:41;;;;;;;18.67;3.33;;;;;;;27.68;64.89;100054.06;4832278;29;20100;-58
2022/07/30 02:05:12;;;;;;;81.63;6.23;;;;;;;27.66;62.69;100039.09;4832374;29;20215;-56
2022/07/30 02:07:49;;;;;;;7.10;2.30;;;;;;;27.63;63.32;100050.06;4832251;29;20117;-57
2022/07/30 02:10:29;;;;;;;7.73;2.90;;;;;;;27.53;64.24;100040.22;4832187;29;20069;-57
2022/07/30 02:13:01;;;;;;;7.57;3.07;;;;;;;27.44;63.80;100035.66;4832061;29;20161;-56
2022/07/30 02:15:39;;;;;;;9.60;2.40;;;;;;;27.45;63.93;100031.97;4832300;29;20113;-56
2022/07/30 02:18:17;;;;;;;7.78;2.78;;;;;;;27.41;64.10;100027.91;4831945;29;20217;-56
2022/07/30 02:21:01;;;;;;;11.17;3.00;;;;;;;27.45;64.60;100036.50;4832172;29;20081;-56
2022/07/30 02:23:43;;;;;;;7.97;2.73;;;;;;;27.43;62.80;100017.88;4832059;29;20097;-56
2022/07/30 02:26:18;;;;;;;5.10;2.50;;;;;;;27.40;63.40;100007.41;4832240;29;20294;-55
2022/07/30 02:28:53;;;;;;;46.77;5.10;;;;;;;27.39;63.53;100011.09;4832076;29;20121;-57
2022/07/30 02:31:28;;;;;;;5.97;2.67;;;;;;;27.34;64.13;100007.97;4831932;29;20061;-56
2022/07/30 02:34:02;;;;;;;17.10;3.20;;;;;;;27.19;65.02;99998.63;4831756;29;20054;-56
2022/07/30 02:36:35;;;;;;;8.80;2.87;;;;;;;27.18;65.03;100007.63;4831659;29;20057;-57
2022/07/30 02:39:08;;;;;;;6.87;2.63;;;;;;;27.07;64.85;99993.34;4831443;29;20050;-55
2022/07/30 02:41:41;;;;;;;14.83;3.10;;;;;;;26.99;64.90;99993.19;4831505;29;20050;-57
2022/07/30 02:44:20;;;;;;;7.17;2.60;;;;;;;26.93;65.56;99985.69;4831606;29;20110;-57
2022/07/30 02:46:54;;;;;;;20.20;3.13;;;;;;;26.85;66.33;99986.38;4831077;29;20129;-57
2022/07/30 02:49:27;;;;;;;12.47;3.10;;;;;;;26.55;66.54;99951.56;4830524;29;20073;-55
2022/07/30 02:51:59;;;;;;;7.70;2.90;;;;;;;26.67;66.95;99988.84;4831399;29;20118;-56
2022/07/30 02:54:31;;;;;;;31.10;4.30;;;;;;;26.56;67.49;99975.56;4829960;29;20114;-56
2022/07/30 02:57:03;;;;;;;9.77;2.70;;;;;;;26.51;67.85;99961.69;4816867;29;20320;-57
2022/07/30 02:59:36;;;;;;;5.23;2.37;;;;;;;26.41;67.04;99958.09;4813216;29;20061;-56
2022/07/30 03:02:10;;;;;;;13.23;2.73;;;;;;;26.40;67.39;99965.28;4799286;29;20064;-57
2022/07/30 03:04:44;;;;;;;13.63;2.47;;;;;;;26.41;66.86;99945.59;4831495;29;20090;-57
2022/07/30 03:07:19;;;;;;;5.13;2.43;;;;;;;26.55;66.84;99947.06;4831069;29;20069;-56
2022/07/30 03:09:51;;;;;;;30.00;4.00;;;;;;;26.66;66.79;99954.16;4831194;29;20050;-56
2022/07/30 03:12:26;;;;;;;12.27;2.77;;;;;;;26.74;65.96;99945.44;4830769;29;20265;-57
2022/07/30 03:14:58;;;;;;;10.90;2.63;;;;;;;26.74;66.38;99950.81;4830988;29;20070;-56
2022/07/30 03:17:36;;;;;;;13.03;2.57;;;;;;;26.74;66.61;99935.56;4822992;29;20066;-56
2022/07/30 03:20:11;;;;;;;21.30;3.40;;;;;;;26.57;65.20;99896.88;4827662;29;20069;-57
2022/07/30 03:22:47;;;;;;;15.33;2.80;;;;;;;26.80;65.26;99924.28;4826310;29;20065;-57
2022/07/30 03:25:23;;;;;;;13.43;2.80;;;;;;;26.81;64.66;99930.47;4827227;29;20350;-56
2022/07/30 03:27:56;;;;;;;15.97;3.20;;;;;;;26.79;64.50;99919.91;4826462;29;20068;-56
2022/07/30 03:30:29;;;;;;;11.73;3.00;;;;;;;26.74;65.05;99911.44;4827512;29;20129;-56
2022/07/30 03:33:02;;;;;;;10.73;3.17;;;;;;;26.81;65.59;99903.69;4826869;29;20058;-56
2022/07/30 03:35:34;;;;;;;20.13;3.43;;;;;;;26.81;64.79;99882.25;4826556;29;20424;-57
2022/07/30 03:38:06;;;;;;;12.20;3.17;;;;;;;27.01;64.69;99889.34;4827375;29;20066;-57
2022/07/30 03:40:37;;;;;;;15.67;3.60;;;;;;;27.11;64.82;99890.19;4827072;29;20274;-56
2022/07/30 03:43:09;;;;;;;13.40;3.40;;;;;;;27.23;65.85;99877.53;4827390;29;20084;-58
2022/07/30 03:46:01;;;;;;;16.63;3.30;;;;;;;27.23;66.25;99888.25;4827021;29;20106;-56
2022/07/30 03:48:35;;;;;;;8.67;2.90;;;;;;;27.20;65.82;99888.50;4827313;29;20177;-58
2022/07/30 03:51:08;;;;;;;17.73;3.30;;;;;;;27.06;65.94;99887.09;4826593;29;20109;-58
2022/07/30 03:53:41;;;;;;;18.57;3.93;;;;;;;27.01;66.78;99878.63;4826459;29;20074;-56
2022/07/30 03:56:13;;;;;;;11.37;3.87;;;;;;;26.95;66.82;99881.84;4826680;29;20058;-57
2022/07/30 03:58:44;;;;;;;9.57;3.40;;;;;;;26.99;67.32;99874.38;4827153;29;20072;-56
2022/07/30 04:01:17;;;;;;;10.43;3.63;;;;;;;26.97;67.39;99877.19;4826614;29;20077;-57
2022/07/30 04:03:50;;;;;;;7.83;3.47;;;;;;;27.01;66.55;99851.81;4827326;29;20103;-57
2022/07/30 04:06:20;;;;;;;9.67;3.53;;;;;;;27.21;66.45;99852.69;4827343;29;20054;-56
2022/07/30 04:08:51;;;;;;;9.43;4.10;;;;;;;27.53;64.45;99847.00;4826772;29;20215;-59
2022/07/30 04:11:22;;;;;;;29.90;5.10;;;;;;;27.75;63.74;99842.25;4826837;29;20411;-57
2022/07/30 04:14:10;;;;;;;15.07;4.25;;;;;;;27.95;64.22;99862.69;4826991;29;20173;-56
2022/07/30 04:16:47;;;;;;;97.73;8.70;;;;;;;28.08;63.87;99850.78;4826302;29;20138;-54
2022/07/30 04:19:23;;;;;;;18.17;4.93;;;;;;;28.21;62.71;99839.69;4825489;29;20058;-56
2022/07/30 04:21:56;;;;;;;18.60;4.57;;;;;;;27.64;62.03;99788.75;4826133;29;20119;-57
2022/07/30 04:24:27;;;;;;;16.47;4.27;;;;;;;27.72;62.90;99823.75;4826301;29;20046;-57
2022/07/30 04:27:01;;;;;;;7.03;3.97;;;;;;;27.65;64.10;99833.38;4826594;29;20062;-56
2022/07/30 04:29:32;;;;;;;7.07;4.40;;;;;;;27.36;63.35;99828.94;4826465;29;20058;-56
2022/07/30 04:32:03;;;;;;;7.70;4.20;;;;;;;27.16;64.47;99827.22;4826460;29;20057;-55
2022/07/30 04:34:35;;;;;;;34.40;6.37;;;;;;;27.16;64.76;99819.16;4826139;29;20076;-56
2022/07/30 04:37:10;;;;;;;13.90;4.63;;;;;;;27.32;64.83;99816.78;4826174;29;20058;-56
2022/07/30 04:39:41;;;;;;;23.07;5.50;;;;;;;27.49;65.21;99808.00;4826318;29;20050;-56
2022/07/30 04:42:13;;;;;;;10.17;4.87;;;;;;;27.40;64.77;99792.78;4826663;29;20050;-56
2022/07/30 04:44:43;;;;;;;16.93;5.17;;;;;;;27.35;64.83;99795.03;4826208;29;20065;-54
2022/07/30 04:47:14;;;;;;;10.67;4.63;;;;;;;27.19;65.26;99778.72;4826005;29;20065;-57
2022/07/30 04:49:48;;;;;;;14.83;4.50;;;;;;;27.25;65.49;99804.94;4826468;29;20069;-56
2022/07/30 04:52:20;;;;;;;19.07;4.83;;;;;;;27.17;64.63;99802.09;4826957;29;20066;-54
2022/07/30 04:54:55;;;;;;;14.47;4.60;;;;;;;27.01;65.01;99799.97;4824512;29;20377;-56
2022/07/30 04:57:27;;;;;;;10.13;4.67;;;;;;;26.91;65.60;99808.06;4826049;29;20398;-56
2022/07/30 04:59:58;;;;;;;18.00;4.33;;;;;;;26.79;66.14;99809.19;4825701;29;20046;-56
2022/07/30 05:02:31;;;;;;;9.40;4.00;;;;;;;26.37;66.30;99766.50;4826304;29;20115;-55
2022/07/30 05:05:05;;;;;;;13.37;4.83;;;;;;;26.52;67.40;99823.22;4826101;29;20058;-56
2022/07/30 05:07:37;;;;;;;9.50;4.60;;;;;;;26.37;67.34;99820.09;4826385;29;20066;-57
2022/07/30 05:10:09;;;;;;;8.33;4.13;;;;;;;26.21;68.09;99804.56;4826085;29;20219;-56
2022/07/30 05:12:40;;;;;;;8.23;4.03;;;;;;;25.87;68.38;99774.56;4825969;29;20038;-56
2022/07/30 05:15:13;;;;;;;7.77;4.07;;;;;;;25.99;68.93;99784.19;4825876;29;20054;-56
2022/07/30 05:17:44;;;;;;;15.43;6.60;;;;;;;26.09;69.22;99790.41;4826086;29;20064;-55
2022/07/30 05:20:16;;;;;;;7.53;3.47;;;;;;;26.12;68.95;99794.66;4825606;29;20066;-56
2022/07/30 05:22:46;;;;;;;10.47;3.77;;;;;;;26.05;68.54;99788.97;4826055;29;20386;-56
2022/07/30 05:25:20;;;;;;;11.20;3.40;;;;;;;26.01;68.78;99777.72;4826141;29;20152;-56
2022/07/30 05:27:51;;;;;;;11.87;3.63;;;;;;;26.02;69.07;99786.59;4826164;29;20068;-55
2022/07/30 05:30:22;;;;;;;9.60;3.37;;;;;;;26.06;68.89;99779.13;4826370;29;20061;-56
2022/07/30 05:32:56;;;;;;;8.07;3.33;;;;;;;25.96;69.00;99773.72;4825829;29;20058;-55
2022/07/30 05:35:31;;;;;;;10.43;3.57;;;;;;;25.87;69.82;99774.56;4825984;29;20058;-55
2022/07/30 05:38:02;;;;;;;7.13;3.30;;;;;;;25.91;70.16;99770.59;4825926;29;20350;-55
2022/07/30 05:40:33;;;;;;;13.17;3.70;;;;;;;26.11;70.08;99777.75;4825902;29;20064;-56
2022/07/30 05:43:03;;;;;;;8.93;3.60;;;;;;;26.30;69.84;99779.59;4824663;29;20066;-56
2022/07/30 05:45:34;;;;;;;7.83;3.83;;;;;;;26.30;69.51;99766.22;4824114;29;20054;-56
2022/07/30 05:48:05;;;;;;;7.50;3.77;;;;;;;26.33;69.77;99765.09;4825703;29;20062;-56
2022/07/30 05:50:37;;;;;;;14.63;4.20;;;;;;;26.43;69.70;99749.88;4824749;29;20115;-56
2022/07/30 05:53:08;;;;;;;35.47;4.97;;;;;;;26.46;69.43;99749.63;4826231;29;20065;-56
2022/07/30 05:55:38;;;;;;;14.60;4.27;;;;;;;26.40;68.58;99750.16;4825242;29;20089;-54
2022/07/30 05:58:09;;;;;;;14.00;4.57;;;;;;;26.24;69.48;99751.56;4827934;29;20065;-57
2022/07/30 06:00:40;;;;;;;9.77;4.37;;;;;;;26.28;69.56;99751.28;4828919;29;20115;-55
2022/07/30 06:03:10;;;;;;;10.47;4.27;;;;;;;26.22;69.51;99750.84;4829008;29;20107;-56
2022/07/30 06:05:43;;;;;;;6.87;4.27;;;;;;;26.20;69.78;99739.41;4828938;29;20066;-56
2022/07/30 06:08:13;;;;;;;8.07;4.73;;;;;;;26.25;70.35;99734.47;4828031;29;20055;-55
2022/07/30 06:10:44;;;;;;;8.87;4.43;;;;;;;26.32;69.70;99741.97;4828122;29;20066;-56
2022/07/30 06:13:14;;;;;;;24.13;5.20;;;;;;;26.27;70.43;99739.72;4828510;29;20066;-55
2022/07/30 06:15:45;;;;;;;15.53;5.00;;;;;;;26.19;70.46;99732.38;4828040;29;20050;-56
2022/07/30 06:18:16;;;;;;;10.67;5.13;;;;;;;26.08;70.94;99724.44;4828598;29;20077;-54
2022/07/30 06:20:50;;;;;;;14.43;5.17;;;;;;;26.04;71.05;99725.72;4828680;29;20077;-57
2022/07/30 06:23:21;;;;;;;31.37;6.03;;;;;;;25.97;71.47;99732.59;4828788;29;20058;-56
2022/07/30 06:25:52;;;;;;;14.60;5.63;;;;;;;25.82;71.86;99730.28;4828561;29;20080;-56
2022/07/30 06:28:22;;;;;;;13.87;5.50;;;;;;;25.65;71.96;99722.03;4827425;29;20469;-57
2022/07/30 06:31:08;;;;;;;12.53;5.43;;;;;;;25.56;72.72;99723.69;4827862;29;20058;-57
2022/07/30 06:33:39;;;;;;;17.17;5.00;;;;;;;25.44;73.33;99722.13;4828406;29;20461;-56
2022/07/30 06:36:12;;;;;;;8.37;4.30;;;;;;;25.30;73.86;99734.00;4828115;29;20339;-55
2022/07/30 06:38:43;;;;;;;8.20;5.00;;;;;;;25.16;74.22;99736.03;4828466;29;20058;-56
2022/07/30 06:41:14;;;;;;;14.43;5.33;;;;;;;25.00;75.01;99740.09;4828570;29;20058;-57
2022/07/30 06:43:45;;;;;;;8.73;4.80;;;;;;;24.85;75.66;99728.88;4828244;29;20129;-55
2022/07/30 06:46:16;;;;;;;21.93;5.87;;;;;;;24.79;76.65;99735.59;4826435;29;20086;-55
2022/07/30 06:48:46;;;;;;;15.10;6.03;;;;;;;24.69;76.71;99730.19;4828199;29;20063;-55
2022/07/30 06:51:19;;;;;;;9.67;4.63;;;;;;;24.64;77.08;99720.88;4827886;29;20115;-55
2022/07/30 06:53:49;;;;;;;17.30;5.20;;;;;;;24.58;77.48;99722.19;4828350;29;20147;-56
2022/07/30 06:56:20;;;;;;;17.67;4.97;;;;;;;24.52;77.54;99712.88;4827787;29;20068;-55
2022/07/30 06:58:51;;;;;;;14.50;5.37;;;;;;;24.37;78.14;99713.28;4826197;29;20054;-57
2022/07/30 07:01:23;;;;;;;20.90;5.70;;;;;;;24.31;78.85;99709.28;4828406;29;20513;-56
2022/07/30 07:03:54;;;;;;;9.80;5.13;;;;;;;24.23;79.32;99701.06;4826451;29;20073;-56
2022/07/30 07:06:26;;;;;;;20.60;6.40;;;;;;;24.16;79.63;99699.88;4828083;29;20065;-53
2022/07/30 07:09:00;;;;;;;11.10;5.53;;;;;;;24.08;79.93;99688.00;4826598;29;20058;-55
2022/07/30 07:11:31;;;;;;;12.13;5.60;;;;;;;24.08;80.08;99688.00;4826400;29;20054;-57
2022/07/30 07:14:01;;;;;;;7.53;5.13;;;;;;;23.96;80.22;99683.66;4827640;29;20059;-55
2022/07/30 07:16:33;;;;;;;14.80;5.37;;;;;;;23.90;80.65;99684.16;4827431;29;20066;-56
2022/07/30 07:19:04;;;;;;;12.53;5.23;;;;;;;23.91;81.05;99675.19;4828237;29;20066;-55
2022/07/30 07:21:37;;;;;;;14.03;5.57;;;;;;;23.89;81.05;99685.16;4827681;29;20046;-57
2022/07/30 07:24:08;;;;;;;10.53;5.07;;;;;;;23.88;81.15;99686.09;4827746;29;20107;-56
2022/07/30 07:26:38;;;;;;;16.03;6.50;;;;;;;23.86;81.34;99680.03;4827738;29;20093;-56
2022/07/30 07:29:09;;;;;;;16.90;5.90;;;;;;;23.82;81.64;99675.94;4827602;29;20054;-55
2022/07/30 07:31:40;;;;;;;13.33;5.77;;;;;;;23.78;81.93;99677.16;4827604;29;20066;-57
2022/07/30 07:34:30;;;;;;;23.37;6.20;;;;;;;23.72;82.17;99664.31;4827354;29;20115;-56
2022/07/30 07:37:03;;;;;;;19.10;6.10;;;;;;;23.75;82.42;99659.59;4827449;29;20569;-56
2022/07/30 07:39:33;;;;;;;17.77;5.53;;;;;;;23.71;82.62;99662.59;4827121;29;20066;-55
2022/07/30 07:42:09;;;;;;;12.27;5.90;;;;;;;23.61;82.85;99663.34;4827400;29;20364;-55
2022/07/30 07:44:39;;;;;;;10.70;6.13;;;;;;;23.52;83.34;99653.41;4827369;29;20072;-55
2022/07/30 07:47:10;;;;;;;15.73;7.23;;;;;;;23.52;83.57;99656.06;4826831;29;20066;-56
2022/07/30 07:49:41;;;;;;;16.67;6.27;;;;;;;23.50;83.81;99660.69;4826683;29;20066;-57
2022/07/30 07:52:13;;;;;;;19.03;6.20;;;;;;;23.46;83.96;99661.88;4827018;29;20082;-55
2022/07/30 07:54:44;;;;;;;14.43;6.57;;;;;;;23.40;84.44;99665.88;4827081;29;20056;-56
2022/07/30 07:57:16;;;;;;;22.23;7.07;;;;;;;23.34;84.52;99644.19;4825731;29;20057;-55
2022/07/30 07:59:50;;;;;;;14.53;6.67;;;;;;;23.29;84.99;99646.38;4827139;29;20066;-57
2022/07/30 08:02:21;;;;;;;15.23;7.07;;;;;;;23.25;85.37;99630.63;4827132;29;20056;-57
2022/07/30 08:04:51;;;;;;;20.20;6.33;;;;;;;23.22;85.57;99630.88;4827145;29;20311;-56
2022/07/30 08:07:23;;;;;;;11.13;5.97;;;;;;;23.21;85.89;99628.31;4827148;29;20061;-55
2022/07/30 08:09:55;;;;;;;12.73;6.60;;;;;;;23.18;86.00;99628.56;4827072;29;20061;-57
2022/07/30 08:12:26;;;;;;;15.33;7.00;;;;;;;23.16;86.33;99634.00;4827186;29;20073;-58
2022/07/30 08:14:57;;;;;;;10.83;6.57;;;;;;;23.18;86.20;99634.75;4827046;29;20069;-56
2022/07/30 08:17:27;;;;;;;15.37;6.93;;;;;;;23.17;86.13;99638.41;4827049;29;20066;-54
2022/07/30 08:20:01;;;;;;;14.63;6.60;;;;;;;23.17;86.22;99633.06;4825640;29;20058;-53
2022/07/30 08:22:33;;;;;;;19.33;6.70;;;;;;;23.15;86.28;99640.31;4826315;29;20054;-56
2022/07/30 08:25:03;;;;;;;19.07;7.30;;;;;;;23.16;86.26;99625.19;4826365;29;20069;-56
2022/07/30 08:27:34;;;;;;;17.77;7.03;;;;;;;23.16;86.38;99622.50;4825464;29;20054;-55
2022/07/30 08:30:06;;;;;;;16.73;7.57;;;;;;;23.18;86.23;99613.44;4824566;29;20058;-56
2022/07/30 08:32:37;;;;;;;17.90;7.27;;;;;;;23.15;86.29;99613.69;4825309;29;20058;-56
2022/07/30 08:35:09;;;;;;;13.83;7.23;;;;;;;23.19;86.28;99617.81;4825997;29;20137;-55
2022/07/30 08:37:41;;;;;;;13.23;6.53;;;;;;;23.32;86.09;99625.66;4827436;29;20336;-57
2022/07/30 08:40:13;;;;;;;18.50;7.47;;;;;;;23.39;85.84;99620.72;4826411;29;20327;-54
2022/07/30 08:42:44;;;;;;;14.30;7.33;;;;;;;23.50;85.11;99612.69;4826638;29;20099;-56
2022/07/30 08:45:17;;;;;;;12.83;7.23;;;;;;;23.65;84.46;99616.75;4827616;29;20075;-56
2022/07/30 08:48:08;;;;;;;15.87;7.50;;;;;;;23.81;83.85;99604.88;4825861;29;20062;-56
2022/07/30 08:50:45;;;;;;;13.97;6.97;;;;;;;24.03;83.15;99610.13;4826346;29;20802;-56
2022/07/30 08:53:18;;;;;;;11.87;6.53;;;;;;;24.06;82.34;99609.91;4825352;29;20077;-56
2022/07/30 08:55:49;;;;;;;21.90;7.37;;;;;;;24.19;81.95;99603.50;4825611;29;20060;-57
2022/07/30 08:58:30;;;;;;;18.27;7.00;;;;;;;24.33;81.56;99608.56;4824877;29;20060;-56
2022/07/30 09:01:00;;;;;;;16.37;7.30;;;;;;;24.42;80.87;99602.44;4825121;29;20323;-55
2022/07/30 09:03:32;;;;;;;16.10;7.47;;;;;;;24.42;80.20;99599.78;4825112;29;20246;-55
2022/07/30 09:06:04;;;;;;;12.70;7.23;;;;;;;24.42;80.35;99629.16;4824977;29;20066;-53
2022/07/30 09:08:36;;;;;;;23.77;7.90;;;;;;;24.22;80.89;99635.31;4825112;29;20092;-53
2022/07/30 09:11:06;;;;;;;16.97;7.53;;;;;;;24.05;81.61;99634.88;4825385;29;20058;-55
2022/07/30 09:13:40;;;;;;;12.77;6.87;;;;;;;23.84;82.07;99626.00;4825746;29;20054;-53
2022/07/30 09:16:21;;;;;;;15.70;6.97;;;;;;;23.69;82.70;99623.56;4825497;29;20054;-56
2022/07/30 09:18:52;;;;;;;12.43;6.70;;;;;;;23.63;83.21;99628.53;4825828;29;20062;-55
2022/07/30 09:21:24;;;;;;;27.93;8.40;;;;;;;23.55;83.73;99621.16;4826422;29;20123;-57
2022/07/30 09:24:01;;;;;;;15.57;6.63;;;;;;;23.50;83.77;99634.00;4826502;29;20078;-55
2022/07/30 09:26:33;;;;;;;13.03;7.33;;;;;;;23.41;84.19;99613.41;4826035;29;20058;-56
2022/07/30 09:29:20;;;;;;;20.00;8.47;;;;;;;23.36;84.31;99610.25;4825977;29;20087;-55
2022/07/30 09:31:56;;;;;;;14.27;7.70;;;;;;;23.22;84.76;99608.72;4826531;29;20286;-57
2022/07/30 09:34:28;;;;;;;13.37;7.50;;;;;;;23.16;85.22;99610.03;4829614;29;20129;-54
2022/07/30 09:37:00;;;;;;;20.50;7.67;;;;;;;23.10;85.66;99615.84;4829560;29;20068;-55
2022/07/30 09:39:35;;;;;;;15.23;7.37;;;;;;;23.06;85.99;99617.06;4829524;29;20073;-52
2022/07/30 09:42:20;;;;;;;15.07;7.70;;;;;;;22.96;86.31;99603.56;4829127;29;20118;-57
2022/07/30 09:44:50;;;;;;;14.07;7.27;;;;;;;22.91;86.49;99604.91;4829071;29;20376;-55
2022/07/30 09:47:34;;;;;;;10.83;7.10;;;;;;;22.85;86.72;99605.41;4829115;29;20056;-54
2022/07/30 09:50:08;;;;;;;17.30;7.57;;;;;;;22.74;87.17;99604.41;4828966;29;20381;-56
2022/07/30 09:52:40;;;;;;;15.67;7.80;;;;;;;22.67;87.82;99600.53;4829084;29;20243;-55
2022/07/30 09:55:31;;;;;;;20.33;8.75;;;;;;;22.64;88.06;99600.78;4829197;29;20094;-55
2022/07/30 09:58:04;;;;;;;12.90;7.97;;;;;;;22.56;88.37;99584.53;4828661;29;20235;-55
2022/07/30 10:00:36;;;;;;;32.40;9.10;;;;;;;22.57;88.52;99594.22;4828743;29;20121;-55
2022/07/30 10:03:18;;;;;;;14.70;8.23;;;;;;;22.50;88.58;99583.19;4829123;29;20137;-52
2022/07/30 10:06:03;;;;;;;12.93;7.53;;;;;;;22.51;88.64;99592.03;4828977;29;20093;-56
2022/07/30 10:08:42;;;;;;;19.20;8.53;;;;;;;22.45;88.93;99587.19;4828683;29;20070;-57
2022/07/30 10:11:17;;;;;;;12.57;8.03;;;;;;;22.39;89.16;99600.00;4828893;29;20231;-55
2022/07/30 10:13:55;;;;;;;18.70;9.37;;;;;;;22.37;89.46;99595.75;4828668;29;20299;-56
2022/07/30 10:16:27;;;;;;;18.67;8.20;;;;;;;22.32;89.69;99604.06;4828437;29;20058;-55
2022/07/30 10:18:59;;;;;;;16.37;8.50;;;;;;;22.29;89.99;99599.00;4828432;29;20065;-53
2022/07/30 10:21:30;;;;;;;13.50;8.67;;;;;;;22.27;90.07;99589.44;4828595;29;20062;-55
2022/07/30 10:24:05;;;;;;;14.50;8.10;;;;;;;22.24;90.18;99590.50;4828571;29;20066;-52
2022/07/30 10:26:38;;;;;;;21.83;9.47;;;;;;;22.21;90.39;99595.19;4828611;29;20061;-57
2022/07/30 10:29:09;;;;;;;50.43;9.97;;;;;;;22.17;90.51;99594.56;4828495;29;20058;-54
2022/07/30 10:31:44;;;;;;;31.83;8.80;;;;;;;22.12;90.87;99594.06;4828960;29;20066;-54
2022/07/30 10:34:22;;;;;;;;;;;;;;;22.12;90.98;99583.41;4828789;29;20050;-55
2022/07/30 10:37:00;;;;;;;17.47;8.47;;;;;;;22.10;91.12;99582.69;4828509;29;19936;-53
2022/07/30 10:39:37;;;;;;;17.00;8.50;;;;;;;22.09;91.34;99586.28;4828242;29;20307;-55
2022/07/30 10:42:33;;;;;;;18.97;8.40;;;;;;;22.07;91.33;99577.59;4828381;29;20303;-54
2022/07/30 10:45:18;;;;;;;19.87;7.97;;;;;;;22.06;91.34;99575.88;4827909;29;20362;-56
2022/07/30 10:47:49;;;;;;;13.83;7.60;;;;;;;22.08;91.33;99584.59;4828017;29;20318;-54
2022/07/30 10:50:25;;;;;;;20.80;7.87;;;;;;;22.06;91.04;99575.88;4827816;29;20304;-56
2022/07/30 10:52:57;;;;;;;14.97;7.50;;;;;;;22.01;91.07;99567.41;4828196;29;20442;-55
2022/07/30 10:55:30;;;;;;;14.77;8.23;;;;;;;22.16;90.76;99582.19;4828032;29;20058;-52
2022/07/30 10:58:11;;;;;;;14.80;8.23;;;;;;;22.19;90.98;99576.69;4828350;29;20294;-56
2022/07/30 11:01:00;;;;;;;14.50;8.40;;;;;;;22.22;90.57;99576.47;4827917;29;20307;-54
2022/07/30 11:03:31;;;;;;;25.87;7.80;;;;;;;22.18;90.62;99573.13;4827621;29;20691;-56
2022/07/30 11:06:29;;;;;;;14.93;8.83;;;;;;;22.19;90.55;99560.72;4826572;29;20066;-56
2022/07/30 11:09:00;;;;;;;19.37;8.87;;;;;;;22.18;90.67;99559.00;4827811;29;20593;-55
2022/07/30 11:11:50;;;;;;;19.07;8.43;;;;;;;22.17;90.61;99557.31;4827697;29;20356;-55
2022/07/30 11:15:00;;;;;;;16.20;8.40;;;;;;;22.16;90.74;99542.28;4826895;29;20339;-56
2022/07/30 11:18:07;;;;;;;15.13;8.00;;;;;;;22.16;90.66;99529.00;4827423;29;20303;-57
2022/07/30 11:20:43;;;;;;;13.83;8.23;;;;;;;22.16;90.46;99526.31;4827502;29;20058;-55
2022/07/30 11:23:41;;;;;;;16.27;8.33;;;;;;;22.15;90.63;99516.66;4827489;29;20321;-56
2022/07/30 11:26:27;;;;;;;13.67;7.70;;;;;;;22.13;90.51;99513.25;4816464;29;20319;-55
2022/07/30 11:28:59;;;;;;;13.70;7.73;;;;;;;22.15;90.43;99506.03;4827659;29;20292;-55
2022/07/30 11:31:33;;;;;;;18.33;8.37;;;;;;;22.11;90.37;99491.25;4828864;29;20642;-57
2022/07/30 11:34:27;;;;;;;16.23;7.77;;;;;;;22.02;90.28;99474.19;4830386;29;20279;-54
2022/07/30 11:37:17;;;;;;;17.77;8.60;;;;;;;22.16;90.34;99507.69;4828561;29;20304;-55
2022/07/30 11:40:11;;;;;;;17.07;7.77;;;;;;;22.12;90.40;99501.78;4830132;29;20295;-57
2022/07/30 11:42:43;;;;;;;15.20;8.53;;;;;;;22.10;90.35;99502.88;4830479;29;20468;-56
2022/07/30 11:45:28;;;;;;;15.50;8.43;;;;;;;22.06;90.35;99485.44;4829583;29;20299;-56
2022/07/30 11:48:01;;;;;;;18.37;8.23;;;;;;;21.98;90.75;99484.19;4828685;29;20579;-57
2022/07/30 11:50:33;;;;;;;12.87;7.90;;;;;;;21.95;90.74;99481.78;4827012;29;20295;-57
2022/07/30 11:53:06;;;;;;;15.53;8.43;;;;;;;21.97;90.87;99482.50;4829372;29;20054;-57
2022/07/30 11:55:39;;;;;;;15.80;7.93;;;;;;;21.95;90.87;99481.78;4828293;29;20485;-57
2022/07/30 11:58:12;;;;;;;16.93;8.67;;;;;;;21.90;90.82;99470.66;4826914;29;20422;-56
2022/07/30 12:00:46;;;;;;;15.47;8.20;;;;;;;21.92;90.88;99479.34;4829005;29;20303;-56
2022/07/30 12:03:20;;;;;;;17.93;8.17;;;;;;;21.93;90.88;99469.56;4829191;29;20292;-58
2022/07/30 12:05:51;;;;;;;17.90;8.83;;;;;;;21.90;91.05;99465.31;4826277;29;20338;-55
2022/07/30 12:08:22;;;;;;;20.97;8.67;;;;;;;21.89;91.02;99463.66;4828342;29;20296;-57
2022/07/30 12:11:04;;;;;;;15.77;8.50;;;;;;;21.87;91.27;99470.88;4828646;29;20288;-54
2022/07/30 12:13:35;;;;;;;19.90;8.83;;;;;;;21.86;91.26;99469.16;4828993;29;20295;-56
2022/07/30 12:16:14;;;;;;;17.37;8.27;;;;;;;21.73;91.15;99447.16;4828052;29;20521;-58
2022/07/30 12:18:48;;;;;;;22.77;9.43;;;;;;;21.87;91.18;99470.88;4819515;29;20288;-56